Time;durP1;ratioP1;P1;durP2;ratioP2;P2;SDS_P1;SDS_P2;PMS_P1;PMS_P2;Temp;Humidity;BMP_temperature;BMP_pressure;BME280_temperature;BME280_humidity;BME280_pressure;Samples;Min_cycle;Max_cycle;Signal;HPM_P1;HPM_P2
2022/10/17 00:00:32;;;;;;;;;;;16.60;99.90;;;;;;4980194;28;20329;-67
2022/10/17 00:02:57;;;;;;;;;;;16.60;99.90;;;;;;4974333;28;19980;-66
2022/10/17 00:05:23;;;;;;;;;;;16.60;99.90;;;;;;4953355;28;20326;-67
2022/10/17 00:07:49;;;;;;;;;;;16.60;99.90;;;;;;4969144;28;20009;-66
2022/10/17 00:10:15;;;;;;;;;;;16.70;99.90;;;;;;4978297;28;19950;-67
2022/10/17 00:12:40;;;;;;;;;;;16.70;99.90;;;;;;4980025;28;19910;-67
2022/10/17 00:15:06;;;;;;;;;;;16.80;99.90;;;;;;4970736;28;19975;-66
2022/10/17 00:17:32;;;;;;;;;;;16.80;99.90;;;;;;4973874;28;19971;-66
2022/10/17 00:19:58;;;;;;;;;;;16.90;99.90;;;;;;4974711;28;19918;-67
2022/10/17 00:22:24;;;;;;;;;;;16.90;99.90;;;;;;4975652;28;19910;-66
2022/10/17 00:24:50;;;;;;;;;;;17.00;99.90;;;;;;4976543;28;19910;-66
2022/10/17 00:27:15;;;;;;;;;;;17.00;99.90;;;;;;4980668;28;20008;-66
2022/10/17 00:29:41;;;;;;;;;;;17.00;99.90;;;;;;4973809;28;19916;-68
2022/10/17 00:32:06;;;;;;;;;;;17.00;99.90;;;;;;4976259;28;19953;-66
2022/10/17 00:34:32;;;;;;;;;;;17.00;99.90;;;;;;4981680;28;20282;-67
2022/10/17 00:37:00;;;;;;;;;;;17.00;99.90;;;;;;4981832;28;19988;-66
2022/10/17 00:39:26;;;;;;;;;;;17.00;99.90;;;;;;4983069;28;20382;-67
2022/10/17 00:41:52;;;;;;;;;;;16.90;99.90;;;;;;4981641;28;19941;-66
2022/10/17 00:44:29;;;;;;;;;;;16.90;99.90;;;;;;4972753;28;19973;-66
2022/10/17 00:47:03;;;;;;;;;;;16.90;99.90;;;;;;4970847;28;19978;-66
2022/10/17 00:49:31;;;;;;;;;;;16.80;99.90;;;;;;4975125;28;20001;-66
2022/10/17 00:52:14;;;;;;;;;;;16.80;99.90;;;;;;4971981;28;19957;-67
2022/10/17 00:54:43;;;;;;;;;;;16.80;99.90;;;;;;4971461;28;19910;-66
2022/10/17 00:57:09;;;;;;;;;;;16.90;99.90;;;;;;4981598;28;20429;-66
2022/10/17 00:59:36;;;;;;;;;;;16.90;99.90;;;;;;4986342;28;20309;-66
2022/10/17 01:02:03;;;;;;;;;;;16.90;99.90;;;;;;4977576;28;20390;-66
2022/10/17 01:04:29;;;;;;;;;;;16.90;99.90;;;;;;4972708;28;19917;-67
2022/10/17 01:06:55;;;;;;;;;;;17.00;99.90;;;;;;4979890;28;20289;-66
2022/10/17 01:09:20;;;;;;;;;;;16.90;99.90;;;;;;4977256;28;19910;-67
2022/10/17 01:11:46;;;;;;;;;;;16.90;99.90;;;;;;4976816;28;20301;-66
2022/10/17 01:14:22;;;;;;;;;;;16.90;99.90;;;;;;4967618;28;19934;-66
2022/10/17 01:17:02;;;;;;;;;;;16.90;99.90;;;;;;4980432;28;19909;-66
2022/10/17 01:19:36;;;;;;;;;;;16.90;99.90;;;;;;4973343;28;19972;-66
2022/10/17 01:22:08;;;;;;;;;;;16.80;99.90;;;;;;4974637;28;20374;-66
2022/10/17 01:24:40;;;;;;;;;;;16.90;99.90;;;;;;4969584;28;20250;-66
2022/10/17 01:27:24;;;;;;;;;;;16.90;99.90;;;;;;4974597;28;20346;-66
2022/10/17 01:29:59;;;;;;;;;;;16.90;99.90;;;;;;4988725;28;19909;-66
2022/10/17 01:32:36;;;;;;;;;;;16.90;99.90;;;;;;4983094;28;19910;-66
2022/10/17 01:35:20;;;;;;;;;;;16.80;99.90;;;;;;4970042;28;19917;-66
2022/10/17 01:37:48;;;;;;;;;;;16.90;99.90;;;;;;4971513;28;19910;-65
2022/10/17 01:40:14;;;;;;;;;;;16.90;99.90;;;;;;4972787;28;19914;-65
2022/10/17 01:42:55;;;;;;;;;;;16.90;99.90;;;;;;4976586;28;19910;-65
2022/10/17 01:45:24;;;;;;;;;;;16.90;99.90;;;;;;4976481;28;20009;-65
2022/10/17 01:47:51;;;;;;;;;;;16.90;99.90;;;;;;4970473;28;19911;-65
2022/10/17 01:50:23;;;;;;;;;;;16.90;99.90;;;;;;4975263;28;19910;-65
2022/10/17 01:52:51;;;;;;;;;;;16.80;99.90;;;;;;4956165;28;19926;-65
2022/10/17 01:55:18;;;;;;;;;;;16.80;99.90;;;;;;4975936;28;19910;-67
2022/10/17 01:57:47;;;;;;;;;;;16.90;99.90;;;;;;4972409;28;19917;-67
2022/10/17 02:00:15;;;;;;;;;;;16.90;99.90;;;;;;4967854;28;20017;-66
2022/10/17 02:02:42;;;;;;;;;;;16.90;99.90;;;;;;4972216;28;19917;-67
2022/10/17 02:05:09;;;;;;;;;;;16.90;99.90;;;;;;4967391;28;19988;-65
2022/10/17 02:07:34;;;;;;;;;;;16.90;99.90;;;;;;4972288;28;19924;-65
2022/10/17 02:10:00;;;;;;;;;;;16.90;99.90;;;;;;4970984;28;20297;-67
2022/10/17 02:12:34;;;;;;;;;;;16.90;99.90;;;;;;4980884;28;19963;-67
2022/10/17 02:15:23;;;;;;;;;;;16.90;99.90;;;;;;4978401;28;19957;-67
2022/10/17 02:18:07;;;;;;;;;;;16.80;99.90;;;;;;4968193;28;19914;-67
2022/10/17 02:20:48;;;;;;;;;;;16.90;99.90;;;;;;4981213;28;19972;-68
2022/10/17 02:23:22;;;;;;;;;;;16.90;99.90;;;;;;4968400;28;20025;-65
2022/10/17 02:25:50;;;;;;;;;;;16.90;99.90;;;;;;4976238;28;20349;-64
2022/10/17 02:28:19;;;;;;;;;;;16.90;99.90;;;;;;4980345;28;19916;-66
2022/10/17 02:30:58;;;;;;;;;;;16.90;99.90;;;;;;4980978;28;19909;-66
2022/10/17 02:33:30;;;;;;;;;;;16.90;99.90;;;;;;4975403;28;19910;-66
2022/10/17 02:35:59;;;;;;;;;;;17.00;99.90;;;;;;4977992;28;19909;-66
2022/10/17 02:38:26;;;;;;;;;;;16.90;99.90;;;;;;4979799;28;19969;-66
2022/10/17 02:40:53;;;;;;;;;;;17.00;99.90;;;;;;4977025;28;20004;-66
2022/10/17 02:43:19;;;;;;;;;;;16.90;99.90;;;;;;4983131;28;19917;-66
2022/10/17 02:45:45;;;;;;;;;;;16.90;99.90;;;;;;4986171;28;20049;-66
2022/10/17 02:48:17;;;;;;;;;;;16.90;99.90;;;;;;4983547;28;20286;-66
2022/10/17 02:50:48;;;;;;;;;;;16.90;99.90;;;;;;4984921;28;19914;-66
2022/10/17 02:53:16;;;;;;;;;;;16.90;99.90;;;;;;4967964;28;20369;-66
2022/10/17 02:55:51;;;;;;;;;;;16.90;99.90;;;;;;4986486;28;19917;-65
2022/10/17 02:58:22;;;;;;;;;;;16.90;99.90;;;;;;4980409;28;19914;-65
2022/10/17 03:00:49;;;;;;;;;;;16.90;99.90;;;;;;4974324;28;20354;-66
2022/10/17 03:03:25;;;;;;;;;;;16.80;99.90;;;;;;4983611;28;19909;-66
2022/10/17 03:05:51;;;;;;;;;;;16.80;99.90;;;;;;4975936;28;19910;-66
2022/10/17 03:08:18;;;;;;;;;;;16.70;99.90;;;;;;4975097;28;19910;-66
2022/10/17 03:10:43;;;;;;;;;;;16.70;99.90;;;;;;4981083;28;20004;-66
2022/10/17 03:13:09;;;;;;;;;;;16.60;99.90;;;;;;4977636;28;20001;-66
2022/10/17 03:15:35;;;;;;;;;;;16.60;99.90;;;;;;4978072;28;20377;-66
2022/10/17 03:18:00;;;;;;;;;;;16.60;99.90;;;;;;4983504;28;19964;-66
2022/10/17 03:20:26;;;;;;;;;;;16.50;99.90;;;;;;4978823;28;19914;-66
2022/10/17 03:22:51;;;;;;;;;;;16.40;99.90;;;;;;4981697;28;19965;-66
2022/10/17 03:25:16;;;;;;;;;;;16.40;99.90;;;;;;4988471;28;20341;-67
2022/10/17 03:27:42;;;;;;;;;;;16.40;99.90;;;;;;4980717;28;19921;-66
2022/10/17 03:30:08;;;;;;;;;;;16.50;99.90;;;;;;4979277;28;20251;-66
2022/10/17 03:32:34;;;;;;;;;;;16.40;99.90;;;;;;4978438;28;19909;-67
2022/10/17 03:35:00;;;;;;;;;;;16.50;99.90;;;;;;4971424;28;20008;-67
2022/10/17 03:37:25;;;;;;;;;;;16.60;99.90;;;;;;4986709;28;19996;-66
2022/10/17 03:39:51;;;;;;;;;;;16.60;99.90;;;;;;4972821;28;19925;-67
2022/10/17 03:42:16;;;;;;;;;;;16.60;99.90;;;;;;4980196;28;19910;-66
2022/10/17 03:44:42;;;;;;;;;;;16.60;99.90;;;;;;4972252;28;20401;-66
2022/10/17 03:47:07;;;;;;;;;;;16.60;99.90;;;;;;4972834;28;19964;-66
2022/10/17 03:49:33;;;;;;;;;;;16.60;99.90;;;;;;4979789;28;19913;-66
2022/10/17 03:51:58;;;;;;;;;;;16.70;99.90;;;;;;4983687;28;20385;-66
2022/10/17 03:54:24;;;;;;;;;;;16.60;99.90;;;;;;4981499;28;19910;-67
2022/10/17 03:56:50;;;;;;;;;;;16.70;99.90;;;;;;4985836;28;19910;-66
2022/10/17 03:59:15;;;;;;;;;;;16.70;99.90;;;;;;4986556;28;19980;-66
2022/10/17 04:01:41;;;;;;;;;;;16.70;99.90;;;;;;4980902;28;19997;-66
2022/10/17 04:04:06;;;;;;;;;;;16.60;99.90;;;;;;4978444;28;19914;-66
2022/10/17 04:06:32;;;;;;;;;;;16.60;99.90;;;;;;4981562;28;19910;-66
2022/10/17 04:08:58;;;;;;;;;;;16.60;99.90;;;;;;4989700;28;19909;-66
2022/10/17 04:11:23;;;;;;;;;;;16.60;99.90;;;;;;4984925;28;20370;-66
2022/10/17 04:14:00;;;;;;;;;;;16.60;99.90;;;;;;4975290;28;19910;-67
2022/10/17 04:16:26;;;;;;;;;;;16.50;99.90;;;;;;4980757;28;19909;-66
2022/10/17 04:18:54;;;;;;;;;;;16.50;99.90;;;;;;4978970;28;19918;-67
2022/10/17 04:21:20;;;;;;;;;;;16.40;99.90;;;;;;4978548;28;20393;-66
2022/10/17 04:23:45;;;;;;;;;;;16.40;99.90;;;;;;4989122;28;19909;-66
2022/10/17 04:26:11;;;;;;;;;;;16.40;99.90;;;;;;4974109;28;19997;-66
2022/10/17 04:28:36;;;;;;;;;;;16.40;99.90;;;;;;4987427;28;19913;-66
2022/10/17 04:31:06;;;;;;;;;;;16.40;99.90;;;;;;4980293;28;20095;-66
2022/10/17 04:33:31;;;;;;;;;;;16.50;99.90;;;;;;4986876;28;19968;-66
2022/10/17 04:36:01;;;;;;;;;;;16.50;99.90;;;;;;4978372;28;20370;-64
2022/10/17 04:38:28;;;;;;;;;;;16.50;99.90;;;;;;4984954;28;19918;-65
2022/10/17 04:40:55;;;;;;;;;;;16.40;99.90;;;;;;4984902;28;19937;-66
2022/10/17 04:43:21;;;;;;;;;;;16.40;99.90;;;;;;4985467;28;19914;-66
2022/10/17 04:45:46;;;;;;;;;;;16.40;99.90;;;;;;4984771;28;20530;-66
2022/10/17 04:48:12;;;;;;;;;;;16.40;99.90;;;;;;4968573;28;19916;-66
2022/10/17 04:50:37;;;;;;;;;;;16.40;99.90;;;;;;4977499;28;19960;-66
2022/10/17 04:53:03;;;;;;;;;;;16.50;99.90;;;;;;4982248;28;19984;-66
2022/10/17 04:55:28;;;;;;;;;;;16.50;99.90;;;;;;4983073;28;19914;-66
2022/10/17 04:57:54;;;;;;;;;;;16.50;99.90;;;;;;4986863;28;19910;-66
2022/10/17 05:00:20;;;;;;;;;;;16.50;99.90;;;;;;4976626;28;19917;-66
2022/10/17 05:02:45;;;;;;;;;;;16.50;99.90;;;;;;4985815;28;19932;-66
2022/10/17 05:05:11;;;;;;;;;;;16.50;99.90;;;;;;4987346;28;19910;-66
2022/10/17 05:07:39;;;;;;;;;;;16.50;99.90;;;;;;4975944;28;19946;-66
2022/10/17 05:10:05;;;;;;;;;;;16.50;99.90;;;;;;4974827;28;19965;-66
2022/10/17 05:12:31;;;;;;;;;;;16.50;99.90;;;;;;4957619;28;19918;-66
2022/10/17 05:14:56;;;;;;;;;;;16.50;99.90;;;;;;4978333;28;19910;-66
2022/10/17 05:17:22;;;;;;;;;;;16.50;99.90;;;;;;4977870;28;19914;-66
2022/10/17 05:19:47;;;;;;;;;;;16.50;99.90;;;;;;4983293;28;19924;-66
2022/10/17 05:22:13;;;;;;;;;;;16.50;99.90;;;;;;4979568;28;19934;-66
2022/10/17 05:24:38;;;;;;;;;;;16.50;99.90;;;;;;4986800;28;19910;-65
2022/10/17 05:27:04;;;;;;;;;;;16.50;99.90;;;;;;4983424;28;19913;-65
2022/10/17 05:29:30;;;;;;;;;;;16.50;99.90;;;;;;4979382;28;20346;-66
2022/10/17 05:31:56;;;;;;;;;;;16.40;99.90;;;;;;4973500;28;19947;-66
2022/10/17 05:34:23;;;;;;;;;;;16.40;99.90;;;;;;4990472;28;19957;-68
2022/10/17 05:36:48;;;;;;;;;;;16.40;99.90;;;;;;4980284;28;20001;-68
2022/10/17 05:39:18;;;;;;;;;;;16.30;99.90;;;;;;4984132;28;20326;-68
2022/10/17 05:41:44;;;;;;;;;;;16.30;99.90;;;;;;4984779;28;19913;-67
2022/10/17 05:44:09;;;;;;;;;;;16.30;99.90;;;;;;4977021;28;19924;-67
2022/10/17 05:46:35;;;;;;;;;;;16.30;99.90;;;;;;4986128;28;19910;-67
2022/10/17 05:49:01;;;;;;;;;;;16.20;99.90;;;;;;4986573;28;20008;-67
2022/10/17 05:51:27;;;;;;;;;;;16.30;99.90;;;;;;4980937;28;19917;-70
2022/10/17 05:53:52;;;;;;;;;;;16.30;99.90;;;;;;4979927;28;19961;-68
2022/10/17 05:56:19;;;;;;;;;;;16.30;99.90;;;;;;4979405;28;19914;-68
2022/10/17 05:58:45;;;;;;;;;;;16.30;99.90;;;;;;4980803;28;20440;-68
2022/10/17 06:01:11;;;;;;;;;;;16.20;99.90;;;;;;4981872;28;19910;-69
2022/10/17 06:03:37;;;;;;;;;;;16.20;99.90;;;;;;4984007;28;20372;-68
2022/10/17 06:06:05;;;;;;;;;;;16.20;99.90;;;;;;4977599;28;19964;-70
2022/10/17 06:08:31;;;;;;;;;;;16.20;99.90;;;;;;4981525;28;19914;-69
2022/10/17 06:10:57;;;;;;;;;;;16.20;99.90;;;;;;4981736;28;19910;-69
2022/10/17 06:13:22;;;;;;;;;;;16.20;99.90;;;;;;4977267;28;19937;-69
2022/10/17 06:15:48;;;;;;;;;;;16.20;99.90;;;;;;4977556;28;20024;-68
2022/10/17 06:18:14;;;;;;;;;;;16.20;99.90;;;;;;4979218;28;19923;-68
2022/10/17 06:20:40;;;;;;;;;;;16.20;99.90;;;;;;4975033;28;20282;-68
2022/10/17 06:23:05;;;;;;;;;;;16.20;99.90;;;;;;4976743;28;19910;-68
2022/10/17 06:25:31;;;;;;;;;;;16.20;99.90;;;;;;4976280;28;19914;-68
2022/10/17 06:27:58;;;;;;;;;;;16.20;99.90;;;;;;4979186;28;19963;-67
2022/10/17 06:30:24;;;;;;;;;;;16.20;99.90;;;;;;4983074;28;19913;-68
2022/10/17 06:32:50;;;;;;;;;;;16.20;99.90;;;;;;4970070;28;20060;-68
2022/10/17 06:35:16;;;;;;;;;;;16.10;99.90;;;;;;4976595;28;19930;-69
2022/10/17 06:37:44;;;;;;;;;;;16.10;99.90;;;;;;4988245;28;19910;-68
2022/10/17 06:40:11;;;;;;;;;;;16.10;99.90;;;;;;4980899;28;19917;-69
2022/10/17 06:42:40;;;;;;;;;;;16.20;99.90;;;;;;4983771;28;20393;-69
2022/10/17 06:45:06;;;;;;;;;;;16.10;99.90;;;;;;4973312;28;19925;-68
2022/10/17 06:47:32;;;;;;;;;;;16.10;99.90;;;;;;4978754;28;20056;-68
2022/10/17 06:49:57;;;;;;;;;;;16.10;99.90;;;;;;4960475;28;19992;-69
2022/10/17 06:52:23;;;;;;;;;;;16.10;99.90;;;;;;4977161;28;20271;-68
2022/10/17 06:54:50;;;;;;;;;;;16.10;99.90;;;;;;4977884;28;19918;-67
2022/10/17 06:57:16;;;;;;;;;;;16.10;99.90;;;;;;4987624;28;20468;-70
2022/10/17 06:59:42;;;;;;;;;;;16.10;99.90;;;;;;4970710;28;19918;-69
2022/10/17 07:02:08;;;;;;;;;;;16.10;99.90;;;;;;4974331;28;19914;-69
2022/10/17 07:04:34;;;;;;;;;;;16.00;99.90;;;;;;4968319;28;19915;-69
2022/10/17 07:07:01;;;;;;;;;;;15.90;99.90;;;;;;4969885;28;19909;-69
2022/10/17 07:09:28;;;;;;;;;;;15.90;99.90;;;;;;4970694;28;20286;-68
2022/10/17 07:11:54;;;;;;;;;;;15.90;99.90;;;;;;4968985;28;19914;-70
2022/10/17 07:14:19;;;;;;;;;;;15.90;99.90;;;;;;4968068;28;19932;-67
2022/10/17 07:16:45;;;;;;;;;;;15.80;99.90;;;;;;4976658;28;19917;-71
2022/10/17 07:19:11;;;;;;;;;;;15.80;99.90;;;;;;4975508;28;19936;-67
2022/10/17 07:21:37;;;;;;;;;;;15.80;99.90;;;;;;4979675;28;20338;-71
2022/10/17 07:24:02;;;;;;;;;;;15.70;99.90;;;;;;4981322;28;19910;-72
2022/10/17 07:26:28;;;;;;;;;;;15.60;99.90;;;;;;4982793;28;19949;-73
2022/10/17 07:28:54;;;;;;;;;;;15.60;99.90;;;;;;4984692;28;19921;-69
2022/10/17 07:31:21;;;;;;;;;;;15.60;99.90;;;;;;4979481;28;19914;-71
2022/10/17 07:33:50;;;;;;;;;;;15.70;99.90;;;;;;4978955;28;19910;-68
2022/10/17 07:36:16;;;;;;;;;;;15.70;99.90;;;;;;4988468;28;19913;-71
2022/10/17 07:38:42;;;;;;;;;;;15.60;99.90;;;;;;4977008;28;20286;-70
2022/10/17 07:41:10;;;;;;;;;;;15.60;99.90;;;;;;4987610;28;19922;-70
2022/10/17 07:43:36;;;;;;;;;;;15.60;99.90;;;;;;4981175;28;19941;-71
2022/10/17 07:46:02;;;;;;;;;;;15.40;99.90;;;;;;4984940;28;20354;-70
2022/10/17 07:48:27;;;;;;;;;;;15.30;99.90;;;;;;4971516;28;20000;-70
2022/10/17 07:50:53;;;;;;;;;;;15.30;99.90;;;;;;4978109;28;20377;-70
2022/10/17 07:53:19;;;;;;;;;;;15.30;99.90;;;;;;4986801;28;20022;-71
2022/10/17 07:55:45;;;;;;;;;;;15.20;99.90;;;;;;4986332;28;19949;-71
2022/10/17 07:58:11;;;;;;;;;;;15.30;99.90;;;;;;4977533;28;20362;-72
2022/10/17 08:00:37;;;;;;;;;;;15.30;99.90;;;;;;4985546;28;19910;-72
2022/10/17 08:03:02;;;;;;;;;;;15.30;99.90;;;;;;4973314;28;19914;-71
2022/10/17 08:05:28;;;;;;;;;;;15.30;99.90;;;;;;4979756;28;19910;-72
2022/10/17 08:07:54;;;;;;;;;;;15.30;99.90;;;;;;4969835;28;19932;-71
2022/10/17 08:10:20;;;;;;;;;;;15.30;99.90;;;;;;4976960;28;20350;-72
2022/10/17 08:12:46;;;;;;;;;;;15.30;99.90;;;;;;4977845;28;20293;-71
2022/10/17 08:15:12;;;;;;;;;;;15.30;99.90;;;;;;4981923;28;19916;-72
2022/10/17 08:17:38;;;;;;;;;;;15.40;99.90;;;;;;4972966;28;19972;-70
2022/10/17 08:20:04;;;;;;;;;;;15.40;99.90;;;;;;4972754;28;19921;-70
2022/10/17 08:22:30;;;;;;;;;;;15.60;99.90;;;;;;4976430;28;19965;-70
2022/10/17 08:24:56;;;;;;;;;;;15.60;99.90;;;;;;4978408;28;19939;-69
2022/10/17 08:27:23;;;;;;;;;;;15.80;99.90;;;;;;4980808;28;20358;-71
2022/10/17 08:29:53;;;;;;;;;;;15.90;99.90;;;;;;4968991;28;19950;-69
2022/10/17 08:32:24;;;;;;;;;;;16.00;99.90;;;;;;4978286;28;20366;-70
2022/10/17 08:34:50;;;;;;;;;;;16.00;99.90;;;;;;4972060;28;20392;-70
2022/10/17 08:37:16;;;;;;;;;;;16.10;99.90;;;;;;4983032;28;19914;-69
2022/10/17 08:39:41;;;;;;;;;;;16.20;99.90;;;;;;4971236;28;20371;-69
2022/10/17 08:42:08;;;;;;;;;;;16.30;99.90;;;;;;4978492;28;20435;-69
2022/10/17 08:44:50;;;;;;;;;;;16.40;99.90;;;;;;4976754;28;19924;-69
2022/10/17 08:47:21;;;;;;;;;;;16.50;99.90;;;;;;4973111;28;19920;-68
2022/10/17 08:49:54;;;;;;;;;;;16.50;99.90;;;;;;4968816;28;19922;-68
2022/10/17 08:52:41;;;;;;;;;;;16.50;99.90;;;;;;4980392;28;19996;-67
2022/10/17 08:55:17;;;;;;;;;;;16.60;99.90;;;;;;4968570;28;19914;-67
2022/10/17 08:57:43;;;;;;;;;;;16.60;99.90;;;;;;4981372;28;19910;-68
2022/10/17 09:00:15;;;;;;;;;;;16.70;99.90;;;;;;4974011;28;19924;-67
2022/10/17 09:03:04;;;;;;;;;;;16.70;99.90;;;;;;4975569;28;19957;-67
2022/10/17 09:05:40;;;;;;;;;;;16.90;99.90;;;;;;4962358;28;20378;-67
2022/10/17 09:08:45;;;;;;;;;;;17.00;99.90;;;;;;4948045;28;19914;-67
2022/10/17 09:11:13;;;;;;;;;;;17.10;99.90;;;;;;4892034;29;19982;-68
2022/10/17 09:13:54;;;;;;;;;;;17.20;99.90;;;;;;4891716;29;19911;-67
2022/10/17 09:16:29;;;;;;;;;;;17.20;99.90;;;;;;4894310;29;19944;-67
2022/10/17 09:19:05;;;;;;;;;;;17.30;99.90;;;;;;4892165;29;19923;-68
2022/10/17 09:21:30;;;;;;;;;;;17.50;99.90;;;;;;4900875;29;19920;-66
2022/10/17 09:23:58;;;;;;;;;;;17.60;99.90;;;;;;4896820;29;20570;-67
2022/10/17 09:26:25;;;;;;;;;;;17.60;99.90;;;;;;4896914;29;19926;-67
2022/10/17 09:28:57;;;;;;;;;;;17.60;99.90;;;;;;4895195;29;19911;-67
2022/10/17 09:31:34;;;;;;;;;;;17.70;99.90;;;;;;4886537;29;19911;-66
2022/10/17 09:34:01;;;;;;;;;;;17.80;99.90;;;;;;4887440;29;19967;-66
2022/10/17 09:36:34;;;;;;;;;;;17.80;99.90;;;;;;4893515;29;19918;-66
2022/10/17 09:39:06;;;;;;;;;;;17.80;99.90;;;;;;4873509;29;19975;-66
2022/10/17 09:41:44;;;;;;;;;;;17.80;99.90;;;;;;4890688;29;19922;-68
2022/10/17 09:44:20;;;;;;;;;;;17.80;99.90;;;;;;4884197;28;20320;-67
2022/10/17 09:46:54;;;;;;;;;;;17.80;99.90;;;;;;4968939;28;20048;-65
2022/10/17 09:49:28;;;;;;;;;;;17.80;99.90;;;;;;4973350;28;20267;-66
2022/10/17 09:51:53;;;;;;;;;;;17.80;99.90;;;;;;4977632;28;19917;-66
2022/10/17 09:54:22;;;;;;;;;;;17.60;99.90;;;;;;4977992;28;19913;-68
2022/10/17 09:57:00;;;;;;;;;;;17.50;99.90;;;;;;4972352;28;19932;-65
2022/10/17 09:59:37;;;;;;;;;;;17.50;99.90;;;;;;4970363;28;20330;-66
2022/10/17 10:02:12;;;;;;;;;;;17.60;99.90;;;;;;4969327;28;19959;-67
2022/10/17 10:07:40;;;;;;;;;;;17.70;99.90;;;;;;4962866;28;20335;-65
2022/10/17 10:10:21;;;;;;;;;;;18.10;99.90;;;;;;4965899;28;20409;-65
2022/10/17 10:13:01;;;;;;;;;;;18.20;99.90;;;;;;4966927;28;19921;-65
2022/10/17 10:15:30;;;;;;;;;;;18.20;99.90;;;;;;4965180;28;19910;-66
2022/10/17 10:17:56;;;;;;;;;;;18.10;99.90;;;;;;4967163;28;19910;-66
2022/10/17 10:20:27;;;;;;;;;;;18.00;99.90;;;;;;4969512;28;19965;-66
2022/10/17 10:23:05;;;;;;;;;;;18.00;99.90;;;;;;4972427;28;19949;-66
2022/10/17 10:25:31;;;;;;;;;;;18.00;99.90;;;;;;4969371;28;19949;-66
2022/10/17 10:28:00;;;;;;;;;;;17.90;99.90;;;;;;4971015;28;19964;-67
2022/10/17 10:30:28;;;;;;;;;;;17.90;99.90;;;;;;4967590;28;19945;-66
2022/10/17 10:32:56;;;;;;;;;;;18.10;99.90;;;;;;4968430;28;20372;-66
2022/10/17 10:35:51;;;;;;;;;;;;;;;;;;;;;
2022/10/17 10:38:20;;;;;;;;;;;18.10;99.90;;;;;;4974226;28;20289;-66
2022/10/17 10:40:48;;;;;;;;;;;18.10;99.90;;;;;;4973200;28;20569;-66
2022/10/17 10:43:33;;;;;;;;;;;18.20;99.90;;;;;;4964130;28;19920;-66
2022/10/17 10:45:59;;;;;;;;;;;18.40;99.90;;;;;;4987014;28;19914;-66
2022/10/17 10:48:26;;;;;;;;;;;18.40;99.90;;;;;;4973439;28;19918;-67
2022/10/17 10:50:56;;;;;;;;;;;18.30;99.90;;;;;;4966833;28;19968;-66
2022/10/17 10:53:24;;;;;;;;;;;18.30;99.90;;;;;;4970430;28;19953;-66
2022/10/17 10:55:53;;;;;;;;;;;18.40;99.90;;;;;;4964593;28;19910;-66
2022/10/17 10:58:37;;;;;;;;;;;18.40;99.90;;;;;;4969716;28;19910;-66
2022/10/17 11:01:14;;;;;;;;;;;18.50;99.90;;;;;;4967390;28;19914;-67
2022/10/17 11:03:53;;;;;;;;;;;19.00;99.90;;;;;;4969490;28;19917;-67
2022/10/17 11:06:22;;;;;;;;;;;19.50;99.90;;;;;;4976989;28;19996;-67
2022/10/17 11:08:59;;;;;;;;;;;19.60;99.90;;;;;;4970234;28;19960;-66
2022/10/17 11:11:24;;;;;;;;;;;19.70;99.90;;;;;;4968924;28;20370;-65
2022/10/17 11:13:54;;;;;;;;;;;19.90;99.90;;;;;;4970607;28;20048;-67
2022/10/17 11:16:22;;;;;;;;;;;19.60;99.90;;;;;;4968193;28;20020;-66
2022/10/17 11:19:11;;;;;;;;;;;19.70;99.90;;;;;;4974736;28;19922;-66
2022/10/17 11:21:42;;;;;;;;;;;20.10;99.90;;;;;;4971687;28;19910;-66
2022/10/17 11:24:30;;;;;;;;;;;20.20;99.90;;;;;;4971682;28;19917;-67
2022/10/17 11:27:02;;;;;;;;;;;20.00;99.90;;;;;;4978111;28;19916;-66
2022/10/17 11:29:29;;;;;;;;;;;20.30;99.90;;;;;;4973046;28;19906;-64
2022/10/17 11:31:55;;;;;;;;;;;20.30;99.90;;;;;;4971378;28;19914;-65
2022/10/17 11:34:30;;;;;;;;;;;20.60;99.90;;;;;;4972038;28;19937;-66
2022/10/17 11:37:01;;;;;;;;;;;20.70;99.90;;;;;;4964037;28;19933;-65
2022/10/17 11:39:40;;;;;;;;;;;20.50;99.90;;;;;;4974133;28;19924;-65
2022/10/17 11:42:09;;;;;;;;;;;20.30;99.90;;;;;;4973474;28;19968;-66
2022/10/17 11:44:36;;;;;;;;;;;20.30;99.90;;;;;;4969411;28;20585;-65
2022/10/17 11:47:17;;;;;;;;;;;20.30;99.90;;;;;;4971482;28;19914;-66
2022/10/17 11:49:45;;;;;;;;;;;20.30;99.90;;;;;;4975201;28;19910;-66
2022/10/17 11:52:27;;;;;;;;;;;20.10;99.90;;;;;;4964897;28;19916;-66
2022/10/17 11:54:55;;;;;;;;;;;20.30;99.90;;;;;;4967448;28;19910;-65
2022/10/17 11:57:36;;;;;;;;;;;20.30;99.90;;;;;;4968467;28;19937;-65
2022/10/17 12:00:17;;;;;;;;;;;20.50;99.90;;;;;;4962680;28;19977;-68
2022/10/17 12:02:42;;;;;;;;;;;20.50;99.90;;;;;;4965937;28;19914;-67
2022/10/17 12:05:17;;;;;;;;;;;20.60;99.90;;;;;;4966034;28;20491;-67
2022/10/17 12:07:45;;;;;;;;;;;20.10;99.90;;;;;;4968564;28;19956;-67
2022/10/17 12:10:23;;;;;;;;;;;20.20;99.90;;;;;;4967950;28;19921;-66
2022/10/17 12:12:48;;;;;;;;;;;20.50;99.90;;;;;;4969446;28;19942;-66
2022/10/17 12:15:24;;;;;;;;;;;20.60;99.90;;;;;;4969113;28;19949;-66
2022/10/17 12:18:05;;;;;;;;;;;20.50;99.90;;;;;;4974688;28;20403;-67
2022/10/17 12:20:34;;;;;;;;;;;20.60;99.90;;;;;;4972085;28;20000;-66
2022/10/17 12:23:09;;;;;;;;;;;20.60;99.90;;;;;;4970539;28;19914;-66
2022/10/17 12:25:38;;;;;;;;;;;20.30;99.90;;;;;;4973294;28;19918;-66
2022/10/17 12:28:04;;;;;;;;;;;20.10;99.90;;;;;;4973241;28;20057;-66
2022/10/17 12:30:30;;;;;;;;;;;19.90;99.90;;;;;;4976125;28;19909;-67
2022/10/17 12:33:21;;;;;;;;;;;19.60;99.90;;;;;;4971517;28;19969;-66
2022/10/17 12:35:51;;;;;;;;;;;19.30;99.90;;;;;;4969461;28;20309;-66
2022/10/17 12:38:16;;;;;;;;;;;19.20;99.90;;;;;;4970937;28;19937;-66
2022/10/17 12:40:49;;;;;;;;;;;19.20;99.90;;;;;;4976073;28;19992;-66
2022/10/17 12:43:15;;;;;;;;;;;19.50;99.90;;;;;;4974356;28;20016;-65
2022/10/17 12:45:46;;;;;;;;;;;19.40;99.90;;;;;;4970704;28;20377;-68
2022/10/17 12:48:35;;;;;;;;;;;19.60;99.90;;;;;;4971185;28;19914;-65
2022/10/17 12:51:01;;;;;;;;;;;20.00;99.90;;;;;;4967310;28;19917;-68
2022/10/17 12:53:34;;;;;;;;;;;20.60;99.90;;;;;;4975244;28;20314;-65
2022/10/17 12:56:00;;;;;;;;;;;20.60;99.90;;;;;;4972588;28;20326;-65
2022/10/17 12:58:32;;;;;;;;;;;20.60;99.90;;;;;;4977447;28;19910;-67
2022/10/17 13:00:58;;;;;;;;;;;20.90;99.90;;;;;;4957027;28;20021;-66
2022/10/17 13:03:25;;;;;;;;;;;21.10;99.90;;;;;;4965104;28;19918;-66
2022/10/17 13:05:52;;;;;;;;;;;21.40;99.90;;;;;;4965921;28;19945;-66
2022/10/17 13:08:23;;;;;;;;;;;21.10;99.90;;;;;;4968020;28;20013;-66
2022/10/17 13:10:52;;;;;;;;;;;21.20;99.90;;;;;;4974736;28;20543;-66
2022/10/17 13:13:25;;;;;;;;;;;21.40;99.90;;;;;;4975131;28;19997;-67
2022/10/17 13:15:51;;;;;;;;;;;20.80;99.90;;;;;;4974632;28;19910;-66
2022/10/17 13:18:23;;;;;;;;;;;20.50;99.90;;;;;;4969414;28;19910;-66
2022/10/17 13:20:55;;;;;;;;;;;20.00;99.90;;;;;;4973416;28;19914;-67
2022/10/17 13:23:27;;;;;;;;;;;19.80;99.90;;;;;;4975867;28;19921;-66
2022/10/17 13:26:12;;;;;;;;;;;19.60;99.90;;;;;;4973055;28;19917;-67
2022/10/17 13:28:37;;;;;;;;;;;19.10;99.90;;;;;;4972419;28;20025;-66
2022/10/17 13:31:03;;;;;;;;;;;19.30;99.90;;;;;;4970295;28;20005;-67
2022/10/17 13:33:38;;;;;;;;;;;19.30;99.90;;;;;;4972006;28;19932;-66
2022/10/17 13:36:06;;;;;;;;;;;19.40;99.90;;;;;;4975034;28;19921;-67
2022/10/17 13:38:35;;;;;;;;;;;19.60;99.90;;;;;;4977738;28;19914;-67
2022/10/17 13:41:02;;;;;;;;;;;20.30;99.90;;;;;;4977019;28;19910;-67
2022/10/17 13:43:30;;;;;;;;;;;21.10;99.90;;;;;;4974943;28;19960;-66
2022/10/17 13:46:00;;;;;;;;;;;21.40;99.90;;;;;;4978313;28;19914;-67
2022/10/17 13:48:27;;;;;;;;;;;21.60;99.90;;;;;;4970204;28;19969;-67
2022/10/17 13:50:54;;;;;;;;;;;21.80;99.90;;;;;;4973249;28;19913;-66
2022/10/17 13:53:23;;;;;;;;;;;21.60;99.90;;;;;;4971766;28;20366;-67
2022/10/17 13:55:51;;;;;;;;;;;21.60;99.90;;;;;;4973658;28;19940;-67
2022/10/17 13:58:24;;;;;;;;;;;21.00;99.90;;;;;;4968401;28;19933;-66
2022/10/17 14:00:55;;;;;;;;;;;21.70;99.90;;;;;;4966321;28;19918;-66
2022/10/17 14:03:24;;;;;;;;;;;21.60;99.90;;;;;;4974077;28;19916;-66
2022/10/17 14:06:01;;;;;;;;;;;22.10;99.90;;;;;;4970247;28;19926;-66
2022/10/17 14:08:27;;;;;;;;;;;22.10;99.90;;;;;;4969854;28;19917;-67
2022/10/17 14:10:59;;;;;;;;;;;22.80;99.90;;;;;;4973313;28;19922;-67
2022/10/17 14:13:32;;;;;;;;;;;23.50;99.90;;;;;;4983305;28;19914;-66
2022/10/17 14:16:01;;;;;;;;;;;23.80;99.90;;;;;;4974938;28;20267;-65
2022/10/17 14:18:29;;;;;;;;;;;23.70;99.90;;;;;;4973219;28;19910;-67
2022/10/17 14:20:54;;;;;;;;;;;23.40;99.90;;;;;;4972720;28;19976;-66
2022/10/17 14:23:30;;;;;;;;;;;23.40;99.90;;;;;;4977586;28;19953;-66
2022/10/17 14:26:07;;;;;;;;;;;23.20;99.90;;;;;;4966003;28;20337;-66
2022/10/17 14:28:33;;;;;;;;;;;23.30;99.90;;;;;;4968449;28;19917;-67
2022/10/17 14:31:21;;;;;;;;;;;23.40;99.90;;;;;;4970492;28;19918;-65
2022/10/17 14:33:48;;;;;;;;;;;23.00;99.90;;;;;;4973863;28;20008;-67